Time;durP1;ratioP1;P1;durP2;ratioP2;P2;SDS_P1;SDS_P2;PMS_P1;PMS_P2;Temp;Humidity;BMP_temperature;BMP_pressure;BME280_temperature;BME280_humidity;BME280_pressure;Samples;Min_cycle;Max_cycle;Signal;HPM_P1;HPM_P2
2022/06/28 00:01:00;;;;;;;0.63;0.63;;;;;;;19.71;95.52;95904.84;4342143;32;20200;-54
2022/06/28 00:03:28;;;;;;;0.60;0.60;;;;;;;19.80;95.06;95900.13;4320773;32;20318;-54
2022/06/28 00:05:57;;;;;;;0.87;0.80;;;;;;;19.78;94.58;95904.28;4323042;32;20181;-55
2022/06/28 00:08:24;;;;;;;0.90;0.90;;;;;;;19.72;95.07;95901.03;4341065;32;20197;-55
2022/06/28 00:10:50;;;;;;;0.70;0.70;;;;;;;19.63;95.93;95900.34;4349601;32;20182;-55
2022/06/28 00:13:17;;;;;;;0.90;0.90;;;;;;;19.69;95.23;95899.00;4305510;32;20256;-54
2022/06/28 00:18:28;;;;;;;0.40;0.40;;;;;;;19.56;96.54;95889.34;4336464;32;20334;-50
2022/06/28 00:20:55;;;;;;;0.70;0.70;;;;;;;19.69;95.18;95887.47;4321924;32;20193;-54
2022/06/28 00:23:20;;;;;;;0.73;0.73;;;;;;;19.64;95.05;95895.75;4340850;32;20189;-54
2022/06/28 00:25:47;;;;;;;1.10;1.03;;;;;;;19.78;95.41;95899.66;4347081;32;20215;-54
2022/06/28 00:28:12;;;;;;;0.80;0.77;;;;;;;19.71;95.13;95904.84;4316103;32;20288;-54
2022/06/28 00:30:37;;;;;;;0.50;0.50;;;;;;;19.67;95.33;95903.94;4345604;32;20186;-54
2022/06/28 00:33:04;;;;;;;0.73;0.73;;;;;;;19.68;95.55;95900.13;4331830;32;20201;-54
2022/06/28 00:35:31;;;;;;;0.60;0.60;;;;;;;19.70;95.58;95895.22;4332418;32;20189;-51
2022/06/28 00:37:58;;;;;;;0.77;0.77;;;;;;;19.52;96.01;95888.47;4335794;32;20278;-52
2022/06/28 00:40:24;;;;;;;1.33;1.33;;;;;;;19.43;95.75;95893.94;4333825;32;20189;-54
2022/06/28 00:42:51;;;;;;;0.70;0.70;;;;;;;19.40;96.05;95889.22;4314891;32;20189;-50
2022/06/28 00:45:23;;;;;;;0.67;0.67;;;;;;;19.43;96.69;95901.22;4342678;32;20182;-51
2022/06/28 00:47:51;;;;;;;0.70;0.70;;;;;;;19.31;96.03;95903.91;4331903;32;20200;-52
2022/06/28 00:50:18;;;;;;;0.83;0.83;;;;;;;19.30;96.26;95902.34;4338380;32;20200;-53
2022/06/28 00:53:21;;;;;;;0.60;0.60;;;;;;;19.28;97.03;95902.66;4344304;32;20185;-53
2022/06/28 00:55:47;;;;;;;0.93;0.93;;;;;;;19.25;96.86;95916.78;4267387;33;20186;-50
2022/06/28 00:58:21;;;;;;;0.80;0.80;;;;;;;19.32;97.68;95918.94;4339388;32;20181;-51
2022/06/28 01:00:49;;;;;;;0.50;0.50;;;;;;;19.39;97.11;95913.75;4285221;32;20209;-53
2022/06/28 01:03:20;;;;;;;0.60;0.60;;;;;;;19.55;96.62;95923.56;4307765;32;20185;-54
2022/06/28 01:05:46;;;;;;;1.03;1.03;;;;;;;19.67;96.25;95925.50;4327810;32;20186;-54
2022/06/28 01:08:13;;;;;;;0.70;0.70;;;;;;;19.53;95.18;95925.03;4328641;32;20196;-55
2022/06/28 01:10:41;;;;;;;0.90;0.90;;;;;;;19.46;94.78;95922.06;4352751;32;20324;-56
2022/06/28 01:13:08;;;;;;;0.57;0.50;;;;;;;19.39;95.87;95932.59;4348276;32;20197;-54
2022/06/28 01:15:37;;;;;;;0.87;0.87;;;;;;;19.31;96.04;95936.19;4350434;32;20264;-55
2022/06/28 01:18:20;;;;;;;0.87;0.87;;;;;;;19.48;96.41;95944.06;4350620;32;20188;-55
2022/06/28 01:20:56;;;;;;;1.20;1.20;;;;;;;19.59;96.09;95945.22;4346913;32;20235;-51
2022/06/28 01:23:22;;;;;;;1.17;1.17;;;;;;;19.55;95.67;95941.62;4339138;32;20208;-51
2022/06/28 01:25:52;;;;;;;0.90;0.90;;;;;;;19.56;94.81;95945.87;4346640;32;20193;-53
2022/06/28 01:28:18;;;;;;;0.73;0.73;;;;;;;19.47;95.00;95942.50;4350585;32;20184;-53
2022/06/28 01:30:50;;;;;;;0.87;0.87;;;;;;;19.43;95.24;95946.97;4324871;32;20197;-51
2022/06/28 01:33:15;;;;;;;1.77;1.30;;;;;;;19.59;95.62;95949.81;4340162;32;20193;-52
2022/06/28 01:35:42;;;;;;;1.10;1.10;;;;;;;19.55;95.39;95955.06;4341342;32;20250;-53
2022/06/28 01:38:08;;;;;;;1.13;0.70;;;;;;;19.54;94.87;95964.28;4335221;32;20257;-49
2022/06/28 01:40:35;;;;;;;0.73;0.73;;;;;;;19.49;94.79;95962.56;4332674;32;20253;-53
2022/06/28 01:43:09;;;;;;;0.60;0.60;;;;;;;19.49;95.27;95956.41;4363757;32;20200;-53
2022/06/28 01:45:37;;;;;;;1.17;1.17;;;;;;;19.35;95.33;95966.66;4352173;32;20193;-53
2022/06/28 01:48:04;;;;;;;1.20;1.20;;;;;;;19.40;94.97;95963.78;4361407;32;20232;-50
2022/06/28 01:50:31;;;;;;;0.70;0.70;;;;;;;19.49;95.36;95973.34;4336450;32;20197;-55
2022/06/28 01:52:58;;;;;;;0.73;0.73;;;;;;;19.51;94.67;95978.41;4325994;32;20219;-50
2022/06/28 01:55:26;;;;;;;0.83;0.83;;;;;;;19.56;94.90;95988.94;4344012;32;20239;-55
2022/06/28 01:57:54;;;;;;;0.70;0.70;;;;;;;19.44;94.54;95988.91;4347126;32;20261;-53
2022/06/28 02:00:21;;;;;;;0.83;0.83;;;;;;;19.25;95.30;95994.81;4337184;32;20224;-53
2022/06/28 02:02:48;;;;;;;1.07;1.07;;;;;;;19.26;95.46;95992.91;4343676;32;20197;-53
2022/06/28 02:05:13;;;;;;;0.80;0.80;;;;;;;19.38;94.96;95990.22;4336503;32;20208;-52
2022/06/28 02:07:46;;;;;;;0.70;0.70;;;;;;;19.49;94.74;96000.25;4347379;32;20223;-51
2022/06/28 02:10:14;;;;;;;0.70;0.70;;;;;;;19.61;94.34;95996.81;4344589;32;20259;-52
2022/06/28 02:12:41;;;;;;;0.87;0.87;;;;;;;19.47;94.49;95993.63;4328840;32;20284;-52
2022/06/28 02:15:07;;;;;;;0.50;0.50;;;;;;;19.71;94.43;95998.31;4373005;32;20185;-51
2022/06/28 02:17:34;;;;;;;1.90;1.20;;;;;;;19.78;94.24;96002.00;4365312;32;20228;-52
2022/06/28 02:20:01;;;;;;;0.57;0.57;;;;;;;19.79;93.14;95992.78;4350287;32;20253;-51
2022/06/28 02:22:28;;;;;;;1.03;1.03;;;;;;;19.77;93.20;95989.66;4319281;32;20309;-56
2022/06/28 02:25:01;;;;;;;0.80;0.80;;;;;;;19.73;93.17;95979.91;4329732;32;20201;-55
2022/06/28 02:27:27;;;;;;;0.70;0.70;;;;;;;19.76;92.90;95987.28;4324212;32;20297;-54
2022/06/28 02:29:55;;;;;;;0.73;0.73;;;;;;;19.58;92.26;95986.72;4354430;32;20209;-52
2022/06/28 02:32:22;;;;;;;0.70;0.70;;;;;;;19.74;92.55;95989.56;4318163;32;20239;-52
2022/06/28 02:40:24;;;;;;;0.40;0.40;;;;;;;19.78;90.67;95990.44;4347808;32;20216;-52
2022/06/28 02:43:00;;;;;;;0.93;0.93;;;;;;;19.76;90.95;95985.38;4354606;32;20229;-53
2022/06/28 02:45:43;;;;;;;0.77;0.77;;;;;;;19.69;89.77;95982.47;4351492;32;20276;-54
2022/06/28 02:48:13;;;;;;;1.07;1.07;;;;;;;19.68;90.27;95985.50;4325613;32;20303;-54
2022/06/28 02:50:39;;;;;;;0.70;0.70;;;;;;;19.71;90.62;95980.25;4340267;32;20193;-54
2022/06/28 02:53:05;;;;;;;0.50;0.50;;;;;;;19.69;90.92;95974.41;4353720;32;20212;-52
2022/06/28 02:55:36;;;;;;;0.60;0.60;;;;;;;19.70;90.64;95978.66;4340337;32;20190;-52
2022/06/28 02:58:02;;;;;;;0.80;0.80;;;;;;;19.68;91.06;95989.00;4318370;32;20196;-50
2022/06/28 03:00:29;;;;;;;0.70;0.70;;;;;;;19.69;90.12;95993.25;4344403;32;20282;-54
2022/06/28 03:02:56;;;;;;;0.90;0.90;;;;;;;19.65;89.91;95984.25;4349995;32;20243;-50
2022/06/28 03:05:22;;;;;;;0.40;0.40;;;;;;;19.74;90.13;95984.97;4334261;32;20212;-53
2022/06/28 03:07:49;;;;;;;0.70;0.70;;;;;;;19.64;90.12;95985.38;4347280;32;20189;-53
2022/06/28 03:10:15;;;;;;;1.33;1.33;;;;;;;19.67;91.29;95986.63;4344361;32;20185;-55
2022/06/28 03:12:42;;;;;;;0.60;0.60;;;;;;;19.69;91.98;95990.56;4344422;32;20211;-55
2022/06/28 03:15:08;;;;;;;0.73;0.73;;;;;;;19.68;91.13;95988.19;4338635;32;20279;-55
2022/06/28 03:17:35;;;;;;;0.73;0.73;;;;;;;19.72;91.39;95986.41;4339944;32;20273;-55
2022/06/28 03:20:01;;;;;;;0.33;0.33;;;;;;;19.68;91.56;95990.88;4347154;32;20257;-55
2022/06/28 03:22:27;;;;;;;1.30;1.20;;;;;;;19.68;92.14;95996.28;4341893;32;20287;-56
2022/06/28 03:24:53;;;;;;;0.80;0.80;;;;;;;19.63;91.43;95997.28;4333787;32;20221;-56
2022/06/28 03:27:21;;;;;;;1.33;1.33;;;;;;;19.54;91.58;95994.66;4333124;32;20196;-56
2022/06/28 03:29:51;;;;;;;0.97;0.97;;;;;;;19.66;91.91;95988.53;4342431;32;20193;-55
2022/06/28 03:32:18;;;;;;;0.73;0.73;;;;;;;19.43;92.25;95990.81;4343475;32;20232;-55
2022/06/28 03:34:47;;;;;;;1.40;1.40;;;;;;;19.67;91.63;95984.72;4331953;32;20193;-55
2022/06/28 03:37:15;;;;;;;0.40;0.40;;;;;;;19.71;91.81;95985.63;4307458;32;20221;-55
2022/06/28 03:39:42;;;;;;;1.53;1.07;;;;;;;19.67;91.62;95990.09;4312340;32;20220;-55
2022/06/28 03:42:09;;;;;;;1.33;1.33;;;;;;;19.65;91.31;95986.97;4335198;32;20223;-53
2022/06/28 03:44:35;;;;;;;0.60;0.60;;;;;;;19.50;91.70;95990.31;4328030;32;20212;-53
2022/06/28 03:47:01;;;;;;;0.60;0.60;;;;;;;19.56;92.42;95995.12;4319597;32;20201;-55
2022/06/28 03:49:28;;;;;;;0.57;0.57;;;;;;;19.66;92.01;95988.53;4362074;32;20177;-56
2022/06/28 03:51:54;;;;;;;0.90;0.90;;;;;;;19.66;92.56;95995.81;4334322;32;20204;-56
2022/06/28 03:54:21;;;;;;;1.27;1.27;;;;;;;19.66;92.60;95987.75;4318632;32;20229;-55
2022/06/28 03:56:48;;;;;;;0.63;0.63;;;;;;;19.54;92.77;95985.81;4325666;32;20185;-51
2022/06/28 03:59:16;;;;;;;1.50;1.37;;;;;;;19.62;92.55;95986.84;4349191;32;20201;-55
2022/06/28 04:01:42;;;;;;;0.87;0.87;;;;;;;19.50;92.00;95990.31;4347839;32;20207;-55
2022/06/28 04:04:08;;;;;;;0.73;0.73;;;;;;;19.25;92.24;95986.72;4337520;32;20189;-57
2022/06/28 04:06:35;;;;;;;1.13;1.13;;;;;;;19.27;92.41;95981.03;4358431;32;20189;-55
2022/06/28 04:09:01;;;;;;;2.47;1.30;;;;;;;19.17;92.38;95979.53;4332127;32;20193;-53
2022/06/28 04:11:28;;;;;;;1.90;1.00;;;;;;;19.22;93.32;95990.09;4347696;32;20219;-56
2022/06/28 04:13:54;;;;;;;0.87;0.87;;;;;;;19.18;93.57;95992.63;4303351;32;20319;-56
2022/06/28 04:16:22;;;;;;;2.77;1.27;;;;;;;19.34;93.75;95987.41;4344168;32;20300;-55
2022/06/28 04:18:52;;;;;;;8.93;1.57;;;;;;;19.40;93.84;95983.41;4312596;32;20260;-55
2022/06/28 04:21:19;;;;;;;1.27;1.27;;;;;;;19.51;93.36;95997.25;4328806;32;20204;-56
2022/06/28 04:23:45;;;;;;;0.57;0.57;;;;;;;19.51;92.75;96003.44;4345000;32;20197;-54
2022/06/28 04:26:13;;;;;;;0.40;0.40;;;;;;;19.32;92.26;96002.34;4344667;32;20260;-56
2022/06/28 04:28:39;;;;;;;1.30;0.97;;;;;;;19.39;93.14;95992.59;4339597;32;20266;-54
2022/06/28 04:31:06;;;;;;;1.40;1.40;;;;;;;19.45;92.39;95987.78;4331900;32;20189;-55
2022/06/28 04:33:33;;;;;;;1.27;1.17;;;;;;;19.37;90.76;95991.34;4307960;32;20189;-53
2022/06/28 04:36:01;;;;;;;1.47;1.07;;;;;;;19.54;92.98;95999.25;4365125;32;20309;-54
2022/06/28 04:38:27;;;;;;;0.97;0.97;;;;;;;19.31;91.37;96003.47;4346104;32;20272;-53
2022/06/28 04:40:52;;;;;;;1.47;1.40;;;;;;;19.41;93.62;95992.25;4373659;32;20200;-52
2022/06/28 04:43:19;;;;;;;2.07;1.87;;;;;;;19.42;92.66;95993.84;4329360;32;20261;-53
2022/06/28 04:45:47;;;;;;;0.80;0.80;;;;;;;19.38;91.23;96011.75;4369597;32;20185;-54
2022/06/28 04:48:14;;;;;;;1.20;1.20;;;;;;;19.44;92.72;96010.44;4370836;32;20204;-49
2022/06/28 04:50:42;;;;;;;2.83;1.97;;;;;;;19.39;90.32;95999.87;4364574;32;20215;-56
2022/06/28 04:53:08;;;;;;;1.17;1.17;;;;;;;19.47;90.77;96001.69;4346870;32;20223;-52
2022/06/28 04:55:35;;;;;;;1.13;1.13;;;;;;;19.58;89.90;95994.78;4352211;32;20252;-54
2022/06/28 04:58:03;;;;;;;1.13;1.13;;;;;;;19.49;89.21;95994.09;4361483;32;20197;-55
2022/06/28 05:00:30;;;;;;;4.00;0.77;;;;;;;19.46;90.57;95990.16;4318990;32;20203;-51
2022/06/28 05:02:56;;;;;;;1.00;1.00;;;;;;;19.59;88.63;95993.66;4339643;32;21339;-54
2022/06/28 05:05:22;;;;;;;1.33;0.67;;;;;;;19.55;87.80;96001.63;4328764;32;20188;-55
2022/06/28 05:07:49;;;;;;;1.07;1.07;;;;;;;19.55;90.04;95998.16;4366449;32;20204;-55
2022/06/28 05:10:14;;;;;;;1.20;1.20;;;;;;;19.52;88.63;95993.44;4363305;32;20246;-54
2022/06/28 05:12:41;;;;;;;1.33;1.33;;;;;;;19.43;87.76;95987.34;4351307;32;20244;-54
2022/06/28 05:15:09;;;;;;;1.03;1.03;;;;;;;19.57;89.27;95985.13;4344834;32;20216;-54
2022/06/28 05:17:37;;;;;;;2.27;0.97;;;;;;;19.60;88.05;95989.84;4332867;32;20184;-53
2022/06/28 05:20:04;;;;;;;0.90;0.90;;;;;;;19.66;86.63;95977.75;4339185;32;20337;-53
2022/06/28 05:22:30;;;;;;;1.20;1.20;;;;;;;19.69;86.36;95971.72;4317111;32;20281;-56
2022/06/28 05:24:58;;;;;;;0.67;0.67;;;;;;;19.73;87.99;95969.13;4334819;32;21595;-52
2022/06/28 05:27:24;;;;;;;1.30;1.30;;;;;;;19.75;87.45;95956.88;4353451;32;20241;-53
2022/06/28 05:29:51;;;;;;;0.67;0.67;;;;;;;19.71;88.45;95957.91;4324336;32;20240;-53
2022/06/28 05:32:16;;;;;;;1.00;1.00;;;;;;;19.81;89.49;95950.16;4360704;32;20197;-53
2022/06/28 05:34:42;;;;;;;1.23;1.23;;;;;;;19.79;87.26;95941.62;4368997;32;20210;-55
2022/06/28 05:37:09;;;;;;;4.67;1.37;;;;;;;19.71;85.12;95937.16;4333751;32;20216;-55
2022/06/28 05:39:37;;;;;;;1.03;1.03;;;;;;;19.86;86.84;95927.62;4344748;32;20211;-55
2022/06/28 05:42:03;;;;;;;1.03;1.03;;;;;;;19.90;86.17;95925.81;4351762;32;20200;-55
2022/06/28 05:44:30;;;;;;;1.30;0.97;;;;;;;19.90;86.58;95929.31;4333989;32;20203;-56
2022/06/28 05:46:56;;;;;;;1.10;1.10;;;;;;;20.01;85.74;95923.44;4365089;32;20219;-53
2022/06/28 05:49:22;;;;;;;2.33;2.23;;;;;;;20.00;86.79;95930.75;4369324;32;20188;-55
2022/06/28 05:51:48;;;;;;;0.97;0.97;;;;;;;19.96;85.63;95932.53;4348073;32;20217;-53
2022/06/28 05:54:15;;;;;;;1.57;1.47;;;;;;;20.04;85.23;95923.56;4343496;32;20196;-55
2022/06/28 05:56:41;;;;;;;1.47;1.47;;;;;;;20.05;85.62;95925.13;4328571;32;20228;-55
2022/06/28 05:59:08;;;;;;;5.50;1.63;;;;;;;20.04;85.30;95922.78;4360306;32;20181;-56
2022/06/28 06:01:35;;;;;;;1.20;1.20;;;;;;;19.89;86.68;95906.19;4359150;32;20244;-54
2022/06/28 06:04:02;;;;;;;6.53;0.80;;;;;;;19.98;84.80;95907.97;4356305;32;20197;-55
2022/06/28 06:06:35;;;;;;;1.23;1.23;;;;;;;20.03;85.01;95910.44;4345274;32;20195;-53
2022/06/28 06:09:02;;;;;;;2.83;1.53;;;;;;;20.01;83.10;95912.66;4356633;32;20244;-56
2022/06/28 06:11:30;;;;;;;0.93;0.93;;;;;;;20.19;83.81;95903.22;4350869;32;20265;-53
2022/06/28 06:13:56;;;;;;;1.20;1.10;;;;;;;20.30;82.60;95903.53;4325318;32;20196;-55
2022/06/28 06:16:22;;;;;;;1.23;1.23;;;;;;;20.28;84.18;95901.19;4346354;32;20261;-52
2022/06/28 06:18:51;;;;;;;1.13;1.13;;;;;;;20.38;84.81;95889.94;4366164;32;20189;-51
2022/06/28 06:21:17;;;;;;;4.90;1.20;;;;;;;20.31;83.96;95887.03;4368453;32;20296;-53
2022/06/28 06:23:43;;;;;;;0.80;0.80;;;;;;;20.37;83.46;95898.38;4340998;32;20205;-52
2022/06/28 06:26:10;;;;;;;1.00;1.00;;;;;;;20.33;82.66;95892.87;4363902;32;20240;-54
2022/06/28 06:28:35;;;;;;;0.93;0.93;;;;;;;20.41;83.22;95897.34;4335226;32;20219;-56
2022/06/28 06:31:12;;;;;;;1.03;1.03;;;;;;;20.34;82.56;95897.12;4346080;32;20211;-53
2022/06/28 06:33:40;;;;;;;1.40;1.40;;;;;;;20.31;83.29;95897.03;4300706;32;20295;-54
2022/06/28 06:36:09;;;;;;;0.87;0.87;;;;;;;19.97;81.33;95896.41;4333215;32;20239;-61
2022/06/28 06:38:35;;;;;;;0.93;0.93;;;;;;;20.35;82.81;95885.22;4357245;32;20240;-55
2022/06/28 06:41:05;;;;;;;1.10;1.10;;;;;;;20.43;83.05;95887.00;4318868;32;20189;-53
2022/06/28 06:43:32;;;;;;;0.90;0.90;;;;;;;20.47;82.63;95877.13;4375311;32;20203;-53
2022/06/28 06:46:04;;;;;;;0.67;0.67;;;;;;;20.67;81.12;95877.25;4339147;32;20195;-55
2022/06/28 06:48:31;;;;;;;0.60;0.60;;;;;;;20.78;78.50;95876.44;4360792;32;20211;-57
2022/06/28 06:50:56;;;;;;;0.60;0.60;;;;;;;20.94;79.58;95887.25;4365802;32;20308;-54
2022/06/28 06:53:23;;;;;;;0.77;0.77;;;;;;;21.08;79.54;95881.44;4362044;32;20227;-53
2022/06/28 06:55:49;;;;;;;0.30;0.30;;;;;;;20.99;77.13;95870.78;4361836;32;20196;-53
2022/06/28 06:58:15;;;;;;;0.50;0.50;;;;;;;21.05;77.23;95868.63;4356092;32;20263;-52
2022/06/28 07:00:42;;;;;;;0.80;0.80;;;;;;;21.19;75.39;95864.41;4330061;32;20268;-55
2022/06/28 07:03:09;;;;;;;0.27;0.27;;;;;;;20.86;77.01;95861.22;4359601;32;20222;-53
2022/06/28 07:05:35;;;;;;;0.53;0.53;;;;;;;20.79;79.25;95845.63;4364210;32;20245;-52
2022/06/28 07:08:02;;;;;;;0.83;0.83;;;;;;;20.62;76.99;95853.22;4332136;32;20240;-55
2022/06/28 07:10:28;;;;;;;0.67;0.67;;;;;;;20.45;78.06;95846.22;4310723;32;20197;-55
2022/06/28 07:12:55;;;;;;;1.10;1.10;;;;;;;20.49;77.55;95841.72;4351809;32;20211;-54
2022/06/28 07:15:20;;;;;;;0.90;0.90;;;;;;;20.48;77.82;95835.56;4315984;32;20237;-55
2022/06/28 07:17:46;;;;;;;1.30;1.20;;;;;;;20.73;78.06;95840.84;4330808;32;20225;-56
2022/06/28 07:20:13;;;;;;;0.67;0.67;;;;;;;20.86;76.47;95845.81;4345230;32;20212;-56
2022/06/28 07:22:40;;;;;;;0.50;0.50;;;;;;;20.41;78.78;95851.53;4334165;32;20196;-57
2022/06/28 07:25:09;;;;;;;1.00;1.00;;;;;;;20.37;78.85;95868.75;4366693;32;20197;-56
2022/06/28 07:27:35;;;;;;;1.43;1.43;;;;;;;20.39;78.43;95869.16;4365450;32;20229;-53
2022/06/28 07:30:04;;;;;;;0.80;0.80;;;;;;;20.32;77.52;95874.34;4359012;32;20193;-55
2022/06/28 07:32:32;;;;;;;0.67;0.67;;;;;;;20.28;78.78;95885.00;4360905;32;20239;-56
2022/06/28 07:34:59;;;;;;;0.83;0.83;;;;;;;20.33;78.03;95892.87;4332004;32;20311;-55
2022/06/28 07:37:26;;;;;;;0.50;0.50;;;;;;;20.30;78.99;95896.25;4356534;32;20193;-56
2022/06/28 07:39:52;;;;;;;0.67;0.67;;;;;;;20.44;79.33;95888.56;4367921;32;20236;-53
2022/06/28 07:42:19;;;;;;;0.73;0.73;;;;;;;20.65;78.34;95890.31;4374581;32;20197;-53
2022/06/28 07:44:46;;;;;;;1.67;1.57;;;;;;;20.79;74.98;95898.78;4355138;32;20223;-55
2022/06/28 07:47:13;;;;;;;0.73;0.73;;;;;;;20.62;75.81;95909.84;4339576;32;20204;-56
2022/06/28 07:52:38;;;;;;;0.70;0.70;;;;;;;20.73;73.72;95938.72;4330713;32;20265;-54
2022/06/28 07:55:08;;;;;;;0.63;0.63;;;;;;;20.85;71.89;95927.06;4319040;32;20284;-56
2022/06/28 07:57:35;;;;;;;0.53;0.53;;;;;;;20.69;75.42;95937.03;4358947;32;20193;-54
2022/06/28 08:00:08;;;;;;;1.13;1.13;;;;;;;20.82;76.31;95944.72;4348755;32;20193;-57
2022/06/28 08:02:34;;;;;;;0.70;0.70;;;;;;;20.92;75.42;95955.03;4353906;32;20198;-55
2022/06/28 08:05:00;;;;;;;0.40;0.40;;;;;;;20.90;74.59;95943.81;4368187;32;20311;-55
2022/06/28 08:07:30;;;;;;;0.43;0.43;;;;;;;20.87;74.81;95928.31;4361271;32;20197;-54
2022/06/28 08:09:57;;;;;;;0.47;0.47;;;;;;;20.88;75.43;95929.09;4372725;32;20208;-54
2022/06/28 08:12:24;;;;;;;0.53;0.53;;;;;;;21.00;73.54;95922.84;4368174;32;20196;-56
2022/06/28 08:14:51;;;;;;;0.90;0.90;;;;;;;20.83;74.02;95921.22;4342395;32;20268;-55
2022/06/28 08:17:17;;;;;;;0.60;0.60;;;;;;;20.96;73.38;95920.06;4335317;32;20197;-56
2022/06/28 08:19:45;;;;;;;0.20;0.20;;;;;;;21.03;73.11;95911.38;4343467;32;20193;-55
2022/06/28 08:22:13;;;;;;;0.20;0.20;;;;;;;20.93;72.61;95909.97;4350714;32;20251;-53
2022/06/28 08:24:38;;;;;;;0.20;0.20;;;;;;;21.06;72.24;95908.75;4346328;32;20189;-56
2022/06/28 08:27:11;;;;;;;0.60;0.60;;;;;;;21.12;72.57;95901.22;4328311;32;20203;-55
2022/06/28 08:29:42;;;;;;;0.63;0.63;;;;;;;21.24;73.08;95893.84;4313680;32;20207;-64
2022/06/28 08:32:20;;;;;;;0.73;0.73;;;;;;;20.93;74.81;95894.56;4323824;32;20176;-56
2022/06/28 08:34:47;;;;;;;0.70;0.70;;;;;;;20.83;75.77;95891.56;4346462;32;20235;-53
2022/06/28 08:37:14;;;;;;;0.70;0.70;;;;;;;20.79;75.88;95887.97;4335501;32;20207;-57
2022/06/28 08:39:41;;;;;;;1.07;0.97;;;;;;;20.78;76.19;95865.66;4357719;32;20188;-57
2022/06/28 08:42:30;;;;;;;0.50;0.50;;;;;;;20.73;75.83;95878.59;4320821;32;20189;-57
2022/06/28 08:45:04;;;;;;;0.70;0.70;;;;;;;20.71;75.33;95878.94;4348361;32;20211;-56
2022/06/28 08:47:34;;;;;;;0.47;0.47;;;;;;;20.74;74.56;95885.56;4360124;32;20284;-57
2022/06/28 08:50:37;;;;;;;0.50;0.50;;;;;;;20.59;75.45;95882.44;4345701;32;20202;-55
2022/06/28 08:53:09;;;;;;;8.50;7.50;;;;;;;20.65;75.66;95876.81;4326073;32;20227;-54
2022/06/28 08:55:37;;;;;;;1.47;1.43;;;;;;;20.67;76.07;95864.56;4363224;32;20211;-57
2022/06/28 08:58:07;;;;;;;2.57;2.33;;;;;;;20.67;76.03;95874.56;4341004;32;20248;-55
2022/06/28 09:00:35;;;;;;;0.80;0.80;;;;;;;20.71;76.11;95875.44;4341346;32;20189;-55
2022/06/28 09:03:02;;;;;;;1.27;1.17;;;;;;;20.81;76.83;95869.53;4367032;32;20211;-54
2022/06/28 09:05:29;;;;;;;1.10;1.10;;;;;;;20.84;75.54;95869.66;4342748;32;20194;-52
2022/06/28 09:07:57;;;;;;;0.70;0.70;;;;;;;20.87;76.49;95870.87;4317253;32;20192;-54
2022/06/28 09:10:24;;;;;;;0.43;0.43;;;;;;;20.87;76.04;95865.47;4324912;32;20259;-53
2022/06/28 09:13:06;;;;;;;0.83;0.83;;;;;;;21.05;75.06;95868.63;4337908;32;20223;-53
2022/06/28 09:16:01;;;;;;;0.47;0.47;;;;;;;21.07;75.03;95872.56;4324933;32;20197;-57
2022/06/28 09:18:43;;;;;;;1.10;1.10;;;;;;;21.12;74.46;95866.12;4359352;32;20290;-55
2022/06/28 09:21:27;;;;;;;1.13;1.13;;;;;;;20.95;76.02;95864.53;4338608;32;20194;-53
2022/06/28 09:24:02;;;;;;;0.60;0.60;;;;;;;21.09;75.77;95870.28;4356422;32;20230;-52
2022/06/28 09:26:28;;;;;;;0.60;0.60;;;;;;;21.22;74.53;95866.41;4352267;32;20192;-54
2022/06/28 09:28:56;;;;;;;0.80;0.80;;;;;;;21.24;73.51;95869.53;4349360;32;20185;-55
2022/06/28 09:31:28;;;;;;;0.60;0.60;;;;;;;21.19;73.91;95869.78;4368168;32;20234;-53
2022/06/28 09:34:10;;;;;;;0.30;0.30;;;;;;;21.12;74.75;95861.50;4319811;32;20196;-54
2022/06/28 09:36:41;;;;;;;0.50;0.50;;;;;;;21.22;72.39;95852.91;4359190;32;20224;-54
2022/06/28 09:39:11;;;;;;;0.30;0.30;;;;;;;21.45;72.34;95849.59;4355035;32;20207;-55
2022/06/28 09:41:45;;;;;;;0.70;0.70;;;;;;;21.53;72.80;95851.34;4354915;32;20215;-60
2022/06/28 09:44:11;;;;;;;0.77;0.77;;;;;;;21.64;72.32;95851.59;4347734;32;20215;-54
2022/06/28 09:46:37;;;;;;;0.57;0.57;;;;;;;21.70;71.09;95856.38;4347968;32;20194;-57
2022/06/28 09:49:06;;;;;;;0.70;0.70;;;;;;;21.58;71.66;95859.97;4336158;32;20247;-54
2022/06/28 09:51:36;;;;;;;1.30;1.30;;;;;;;21.68;71.99;95855.94;4319991;32;20189;-54
2022/06/28 09:54:08;;;;;;;0.73;0.73;;;;;;;21.75;71.64;95852.63;4341314;32;20245;-55
2022/06/28 09:56:41;;;;;;;0.60;0.60;;;;;;;21.76;71.11;95844.16;4331038;32;20229;-55
2022/06/28 09:59:11;;;;;;;0.83;0.83;;;;;;;21.82;71.00;95833.88;4311751;32;20199;-55
2022/06/28 10:01:38;;;;;;;0.47;0.47;;;;;;;21.90;70.98;95820.16;4352082;32;20209;-53
2022/06/28 10:04:03;;;;;;;1.40;1.30;;;;;;;21.98;69.47;95809.50;4304661;32;20252;-53
2022/06/28 10:06:32;;;;;;;0.77;0.77;;;;;;;22.15;66.30;95809.13;4354380;32;20272;-54
2022/06/28 10:09:08;;;;;;;1.03;1.03;;;;;;;22.13;66.81;95814.09;4294787;32;20285;-53
2022/06/28 10:17:33;;;;;;;0.37;0.37;;;;;;;21.84;68.39;95801.87;4349372;32;20216;-60
2022/06/28 10:20:43;;;;;;;0.70;0.70;;;;;;;21.86;69.46;95789.56;4361919;32;20211;-53
2022/06/28 10:23:36;;;;;;;0.40;0.40;;;;;;;21.74;70.34;95784.31;4341765;32;20193;-52
2022/06/28 10:26:20;;;;;;;0.53;0.53;;;;;;;21.87;68.48;95790.34;4353955;32;20213;-54
2022/06/28 10:29:24;;;;;;;0.60;0.60;;;;;;;21.94;67.11;95785.13;4334287;32;20280;-54
2022/06/28 10:31:50;;;;;;;0.87;0.87;;;;;;;22.07;66.77;95786.56;4350417;32;20214;-51
2022/06/28 10:34:23;;;;;;;0.40;0.40;;;;;;;21.93;67.63;95787.03;4333630;32;20178;-55
2022/06/28 10:36:57;;;;;;;0.40;0.40;;;;;;;21.93;67.85;95797.84;4368131;32;20184;-56
2022/06/28 10:39:32;;;;;;;0.87;0.87;;;;;;;22.04;67.71;95805.41;4348642;32;20181;-55
2022/06/28 10:42:00;;;;;;;0.40;0.40;;;;;;;21.85;69.32;95801.50;4337100;32;20245;-54
2022/06/28 10:44:34;;;;;;;0.50;0.50;;;;;;;21.78;70.15;95789.78;4359450;32;20262;-51
2022/06/28 10:47:11;;;;;;;0.83;0.83;;;;;;;21.91;68.19;95775.78;4304177;32;20304;-53
2022/06/28 10:49:46;;;;;;;0.30;0.30;;;;;;;21.89;67.94;95767.25;4337430;32;20248;-55
2022/06/28 10:52:28;;;;;;;0.63;0.63;;;;;;;21.90;68.40;95763.41;4348533;32;20180;-55
2022/06/28 10:55:03;;;;;;;0.80;0.80;;;;;;;21.89;68.46;95761.06;4343832;32;20203;-55
2022/06/28 10:57:36;;;;;;;0.60;0.60;;;;;;;21.90;68.40;95749.91;4352507;32;20226;-54
2022/06/28 11:00:34;;;;;;;0.70;0.70;;;;;;;21.83;69.24;95755.16;4338592;32;20184;-54
2022/06/28 11:03:03;;;;;;;0.67;0.67;;;;;;;21.90;69.42;95757.22;4319291;32;20269;-51
2022/06/28 11:05:57;;;;;;;2.17;2.07;;;;;;;21.77;70.45;95759.28;4349607;32;20197;-52
2022/06/28 11:09:01;;;;;;;1.77;1.67;;;;;;;21.68;70.64;95756.00;4318636;32;20201;-56
2022/06/28 11:11:29;;;;;;;0.73;0.73;;;;;;;21.75;71.38;95766.97;4332751;32;20271;-54
2022/06/28 11:14:32;;;;;;;0.40;0.40;;;;;;;21.76;71.37;95773.94;4328630;32;20216;-52
2022/06/28 11:17:00;;;;;;;0.40;0.40;;;;;;;21.65;71.41;95762.09;4363111;32;20203;-54
2022/06/28 11:19:28;;;;;;;1.13;1.13;;;;;;;21.62;71.19;95754.69;4315952;32;22189;-54
2022/06/28 11:21:58;;;;;;;0.57;0.57;;;;;;;21.65;71.03;95750.53;4359364;32;20218;-55
2022/06/28 11:24:27;;;;;;;0.90;0.90;;;;;;;21.61;71.30;95745.06;4311036;32;20189;-53
2022/06/28 11:27:20;;;;;;;0.80;0.80;;;;;;;21.56;71.60;95750.72;4314920;32;20205;-54
2022/06/28 11:29:52;;;;;;;0.60;0.60;;;;;;;21.59;72.67;95747.34;4351655;32;20258;-57
2022/06/28 11:32:36;;;;;;;0.80;0.80;;;;;;;21.64;71.41;95748.94;4355402;32;20185;-53
2022/06/28 11:35:23;;;;;;;0.70;0.70;;;;;;;21.68;70.96;95747.91;4353874;32;20196;-55
2022/06/28 11:38:03;;;;;;;0.90;0.90;;;;;;;21.61;71.87;95747.75;4338553;32;20201;-50
2022/06/28 11:40:47;;;;;;;0.60;0.60;;;;;;;21.51;72.71;95748.31;4369065;32;20252;-55
2022/06/28 11:43:25;;;;;;;2.93;1.40;;;;;;;21.47;73.24;95755.53;4340104;32;20262;-53
2022/06/28 11:45:53;;;;;;;0.50;0.50;;;;;;;21.62;72.69;95746.59;4354588;32;20270;-55
2022/06/28 11:48:33;;;;;;;0.87;0.87;;;;;;;21.47;74.24;95747.44;4341009;32;20200;-54
2022/06/28 11:51:01;;;;;;;1.07;1.07;;;;;;;21.57;73.69;95744.97;4334161;32;20208;-53
2022/06/28 11:53:31;;;;;;;0.40;0.40;;;;;;;21.50;74.37;95752.91;4347997;32;20211;-52
2022/06/28 11:55:59;;;;;;;0.53;0.53;;;;;;;21.45;74.51;95745.09;4352719;32;20406;-55
2022/06/28 11:58:38;;;;;;;1.27;1.23;;;;;;;21.61;72.75;95742.38;4354163;32;20200;-55
2022/06/28 12:01:21;;;;;;;9.97;1.13;;;;;;;21.52;74.10;95731.75;4347587;32;20229;-54
2022/06/28 12:03:49;;;;;;;0.90;0.90;;;;;;;21.62;74.17;95728.47;4334370;32;20300;-53